Time;durP1;ratioP1;P1;durP2;ratioP2;P2;SDS_P1;SDS_P2;PMS_P1;PMS_P2;Temp;Humidity;BMP_temperature;BMP_pressure;BME280_temperature;BME280_humidity;BME280_pressure;Samples;Min_cycle;Max_cycle;Signal;HPM_P1;HPM_P2
2022/06/20 00:01:49;;;;;;;5.17;3.13;;;16.90;99.90;;;;;;5054173;28;20465;-60
2022/06/20 00:04:19;;;;;;;9.77;3.60;;;16.70;99.90;;;;;;5054207;28;20459;-60
2022/06/20 00:06:45;;;;;;;3.97;2.93;;;16.50;99.90;;;;;;5054145;28;20448;-60
2022/06/20 00:09:13;;;;;;;7.77;3.37;;;16.40;99.90;;;;;;5053947;28;20506;-60
2022/06/20 00:11:44;;;;;;;6.13;3.57;;;16.50;99.90;;;;;;5054118;28;20760;-60
2022/06/20 00:14:14;;;;;;;5.03;3.63;;;16.50;99.90;;;;;;5054091;28;20509;-60
2022/06/20 00:16:43;;;;;;;4.83;3.17;;;16.50;99.90;;;;;;5054354;28;20534;-60
2022/06/20 00:19:10;;;;;;;5.87;4.10;;;16.60;99.90;;;;;;5053828;28;20448;-60
2022/06/20 00:21:38;;;;;;;4.67;3.20;;;16.70;99.90;;;;;;5053702;28;20950;-60
2022/06/20 00:24:05;;;;;;;5.83;3.53;;;16.70;99.90;;;;;;5053741;28;20958;-60
2022/06/20 00:26:31;;;;;;;6.97;3.43;;;16.90;99.90;;;;;;5053745;28;20452;-60
2022/06/20 00:28:58;;;;;;;3.60;3.20;;;16.90;99.90;;;;;;5053771;28;20423;-60
2022/06/20 00:31:24;;;;;;;3.77;3.20;;;16.90;99.90;;;;;;5053606;28;20944;-61
2022/06/20 00:33:52;;;;;;;5.23;3.20;;;16.90;99.90;;;;;;5053481;28;20451;-60
2022/06/20 00:36:19;;;;;;;4.27;3.40;;;16.90;99.90;;;;;;5053663;28;20425;-60
2022/06/20 00:38:49;;;;;;;6.87;4.07;;;17.00;99.90;;;;;;5053213;28;20418;-60
2022/06/20 00:41:20;;;;;;;5.10;3.37;;;16.90;99.90;;;;;;5053577;28;20856;-60
2022/06/20 00:43:49;;;;;;;8.53;4.10;;;17.10;99.90;;;;;;5053280;28;20568;-60
2022/06/20 00:46:24;;;;;;;5.63;4.10;;;17.20;99.90;;;;;;5053398;28;20470;-60
2022/06/20 00:48:57;;;;;;;5.53;3.77;;;17.30;99.90;;;;;;5053551;28;20452;-60
2022/06/20 00:51:31;;;;;;;5.00;3.77;;;17.50;99.90;;;;;;5053504;28;20429;-60
2022/06/20 00:54:05;;;;;;;5.13;3.77;;;17.60;99.90;;;;;;5053297;28;20443;-60
2022/06/20 00:56:39;;;;;;;8.33;4.57;;;17.60;99.90;;;;;;5053323;28;20452;-61
2022/06/20 00:59:11;;;;;;;9.37;4.40;;;17.60;99.90;;;;;;5053170;28;20831;-61
2022/06/20 01:01:40;;;;;;;7.70;4.07;;;;;;;;;;5053272;28;20484;-60
2022/06/20 01:04:10;;;;;;;5.57;3.70;;;;;;;;;;5053244;28;20498;-61
2022/06/20 01:06:40;;;;;;;6.37;4.10;;;;;;;;;;5053139;28;20450;-60
2022/06/20 01:09:09;;;;;;;5.30;4.17;;;;;;;;;;5053394;28;20554;-60
2022/06/20 01:11:44;;;;;;;3.83;3.50;;;;;;;;;;5052881;28;20812;-60
2022/06/20 01:14:22;;;;;;;6.60;4.07;;;;;;;;;;5053102;28;20447;-60
2022/06/20 01:16:49;;;;;;;4.70;3.57;;;;;;;;;;5052955;28;20501;-60
2022/06/20 01:19:23;;;;;;;5.60;3.80;;;;;;;;;;5052887;28;20452;-60
2022/06/20 01:21:50;;;;;;;8.57;4.07;;;;;;;;;;5052620;28;20480;-60
2022/06/20 01:24:23;;;;;;;4.17;3.63;;;;;;;;;;5052949;28;20437;-61
2022/06/20 01:26:53;;;;;;;5.60;4.40;;;;;;;;;;5052927;28;20419;-60
2022/06/20 01:29:21;;;;;;;5.10;3.40;;;;;;;;;;5052733;28;20931;-60
2022/06/20 01:31:50;;;;;;;4.33;3.63;;;;;;;;;;5052751;28;20423;-60
2022/06/20 01:34:18;;;;;;;5.20;3.77;;;;;;;;;;5052554;28;20454;-60
2022/06/20 01:39:32;;;;;;;5.90;4.27;;;;;;;;;;5052754;28;20447;-60
2022/06/20 01:44:46;;;;;;;8.10;4.83;;;;;;;;;;5052423;28;20445;-60
2022/06/20 01:47:13;;;;;;;5.50;4.10;;;;;;;;;;5052816;28;20459;-60
2022/06/20 01:49:43;;;;;;;7.43;4.50;;;;;;;;;;5052461;28;21030;-60
2022/06/20 01:52:15;;;;;;;7.37;4.00;;;;;;;;;;5056773;28;20433;-60
2022/06/20 01:54:44;;;;;;;5.30;4.60;;;;;;;;;;5056670;28;20813;-60
2022/06/20 01:57:12;;;;;;;5.23;4.10;;;;;;;;;;5056521;28;20823;-60
2022/06/20 01:59:43;;;;;;;7.50;4.10;;;;;;;;;;5056763;28;20543;-61
2022/06/20 02:02:11;;;;;;;5.67;4.40;;;;;;;;;;5056597;28;20515;-60
2022/06/20 02:04:39;;;;;;;6.03;5.00;;;;;;;;;;5056579;28;20419;-60
2022/06/20 02:07:08;;;;;;;7.83;5.30;;;;;;;;;;5056409;28;20451;-60
2022/06/20 02:09:35;;;;;;;5.10;4.60;;;;;;;;;;5056351;28;20452;-60
2022/06/20 02:12:03;;;;;;;5.93;4.27;;;;;;;;;;5056159;28;20427;-60
2022/06/20 02:14:33;;;;;;;5.33;4.80;;;;;;;;;;5056400;28;20452;-60
2022/06/20 02:17:01;;;;;;;6.77;5.63;;;;;;;;;;5056408;28;20452;-60
2022/06/20 02:19:31;;;;;;;9.50;5.07;;;;;;;;;;5056248;28;20823;-60
2022/06/20 02:21:59;;;;;;;7.30;5.57;;;;;;;;;;5056131;28;20454;-60
2022/06/20 02:24:27;;;;;;;6.90;5.87;;;;;;;;;;5055935;28;20452;-60
2022/06/20 02:26:56;;;;;;;9.67;5.63;;;;;;;;;;5056178;28;20429;-60
2022/06/20 02:29:24;;;;;;;7.73;5.90;;;;;;;;;;5056182;28;20423;-60
2022/06/20 02:31:53;;;;;;;9.93;5.50;;;;;;;;;;5056088;28;20539;-60
2022/06/20 02:34:20;;;;;;;7.67;6.00;;;;;;;;;;5055893;28;20542;-60
2022/06/20 02:36:48;;;;;;;9.17;6.57;;;;;;;;;;5055622;28;20493;-60
2022/06/20 02:39:15;;;;;;;10.00;6.73;;;;;;;;;;5055951;28;20778;-60
2022/06/20 02:41:43;;;;;;;8.30;6.13;;;;;;;;;;5055788;28;20554;-60
2022/06/20 02:44:14;;;;;;;11.00;7.00;;;;;;;;;;5054570;28;20836;-60
2022/06/20 02:46:41;;;;;;;10.77;6.17;;;;;;;;;;5054518;28;20433;-60
2022/06/20 02:49:09;;;;;;;8.80;6.50;;;;;;;;;;5054285;28;20426;-60
2022/06/20 02:51:37;;;;;;;7.93;6.20;;;;;;;;;;5054315;28;20476;-60
2022/06/20 02:54:07;;;;;;;8.50;6.07;;;;;;;;;;5054359;28;20459;-60
2022/06/20 02:56:38;;;;;;;6.83;6.13;;;;;;;;;;5054419;28;20472;-60
2022/06/20 02:59:07;;;;;;;10.17;7.20;;;;;;;;;;5054294;28;20445;-60
2022/06/20 03:01:37;;;;;;;9.23;5.87;;;;;;;;;;5053714;28;20465;-60
2022/06/20 03:04:04;;;;;;;10.97;7.10;;;;;;;;;;5054030;28;20451;-60
2022/06/20 03:06:33;;;;;;;10.80;5.60;;;;;;;;;;5054073;28;20986;-60
2022/06/20 03:09:00;;;;;;;9.27;5.50;;;;;;;;;;5054190;28;20502;-60
2022/06/20 03:11:29;;;;;;;10.67;6.70;;;;;;;;;;5053987;28;20438;-60
2022/06/20 03:13:58;;;;;;;8.10;5.63;;;;;;;;;;5054076;28;20804;-60
2022/06/20 03:16:26;;;;;;;6.30;5.03;;;;;;;;;;5053764;28;21031;-60
2022/06/20 03:18:53;;;;;;;8.33;5.60;;;;;;;;;;5054139;28;20456;-60
2022/06/20 03:21:23;;;;;;;8.20;5.77;;;;;;;;;;5053936;28;20472;-60
2022/06/20 03:23:51;;;;;;;9.10;5.03;;;;;;;;;;5053945;28;20463;-60
2022/06/20 03:26:19;;;;;;;7.10;5.03;;;;;;;;;;5053840;28;20459;-60
2022/06/20 03:28:47;;;;;;;9.10;6.27;;;;;;;;;;5053611;28;20454;-60
2022/06/20 03:31:14;;;;;;;6.00;5.33;;;;;;;;;;5053706;28;20462;-60
2022/06/20 03:33:42;;;;;;;8.87;5.73;;;;;;;;;;5053800;28;20459;-60
2022/06/20 03:36:11;;;;;;;9.47;6.33;;;;;;;;;;5053678;28;20807;-60
2022/06/20 03:38:39;;;;;;;7.57;6.00;;;;;;;;;;5054057;28;20452;-60
2022/06/20 03:41:06;;;;;;;6.83;5.53;;;;;;;;;;5053536;28;20430;-60
2022/06/20 03:43:35;;;;;;;7.60;5.30;;;;;;;;;;5020200;28;958779;-60
2022/06/20 03:46:04;;;;;;;8.87;5.70;;;;;;;;;;5054760;28;20287;-60
2022/06/20 03:48:34;;;;;;;6.57;5.73;;;;;;;;;;5054653;28;20455;-60
2022/06/20 03:51:04;;;;;;;7.73;5.40;;;;;;;;;;5054479;28;20423;-60
2022/06/20 03:53:33;;;;;;;10.73;6.67;;;;;;;;;;5054464;28;20807;-60
2022/06/20 03:56:04;;;;;;;10.50;6.83;;;;;;;;;;5054242;28;20764;-60
2022/06/20 03:58:33;;;;;;;9.40;6.57;;;;;;;;;;5054457;28;20476;-60
2022/06/20 04:01:04;;;;;;;6.90;5.60;;;;;;;;;;5054234;28;20815;-60
2022/06/20 04:03:36;;;;;;;7.20;5.80;;;;;;;;;;5054164;28;20462;-60
2022/06/20 04:06:06;;;;;;;7.77;6.67;;;;;;;;;;5054162;28;20456;-60
2022/06/20 04:11:18;;;;;;;8.20;5.90;;;;;;;;;;5053905;28;20444;-60
2022/06/20 04:13:52;;;;;;;7.57;6.00;;;;;;;;;;5053564;28;20453;-60
2022/06/20 04:16:20;;;;;;;8.30;5.50;;;;;;;;;;5054006;28;20456;-60
2022/06/20 04:18:50;;;;;;;8.00;5.90;;;;;;;;;;5053840;28;20454;-60
2022/06/20 04:21:20;;;;;;;8.20;6.10;;;;;;;;;;5053947;28;20456;-60
2022/06/20 04:23:51;;;;;;;7.77;5.53;;;;;;;;;;5053991;28;20454;-60
2022/06/20 04:26:22;;;;;;;7.60;5.53;;;;;;;;;;5053915;28;20444;-60
2022/06/20 04:28:52;;;;;;;7.70;6.10;;;;;;;;;;5053771;28;20440;-60
2022/06/20 04:31:23;;;;;;;7.33;5.97;;;;;;;;;;5053636;28;20455;-60
2022/06/20 04:33:56;;;;;;;7.20;5.50;;;;;;;;;;5053732;28;20444;-60
2022/06/20 04:36:27;;;;;;;6.30;5.70;;;;;;;;;;5053474;28;20430;-60
2022/06/20 04:38:56;;;;;;;7.97;6.03;;;;;;;;;;5053578;28;20680;-60
2022/06/20 04:41:34;;;;;;;7.30;6.00;;;;;;;;;;5053377;28;20448;-60
2022/06/20 04:44:03;;;;;;;8.20;5.83;;;;;;;;;;5053050;28;20476;-60
2022/06/20 04:46:32;;;;;;;12.07;6.30;;;;;;;;;;5053584;28;20429;-60
2022/06/20 04:49:02;;;;;;;6.97;6.20;;;;;;;;;;5053336;28;20427;-60
2022/06/20 04:51:32;;;;;;;9.20;6.00;;;;;;;;;;5053404;28;20423;-60
2022/06/20 04:53:59;;;;;;;5.80;5.20;;;;;;;;;;5053173;28;20458;-60
2022/06/20 04:56:27;;;;;;;8.00;5.20;;;;;;;;;;5053054;28;20859;-60
2022/06/20 04:58:55;;;;;;;7.77;5.57;;;;;;;;;;5053316;28;20431;-60
2022/06/20 05:01:22;;;;;;;6.33;5.10;;;;;;;;;;5053036;28;20954;-60
2022/06/20 05:03:55;;;;;;;5.97;5.20;;;;;;;;;;5052838;28;20998;-60
2022/06/20 05:06:24;;;;;;;6.30;5.67;;;;;;;;;;5052991;28;20448;-60
2022/06/20 05:08:53;;;;;;;7.13;5.20;;;;;;;;;;5052736;28;20455;-59
2022/06/20 05:11:24;;;;;;;8.57;5.50;;;;;;;;;;5053067;28;20464;-60
2022/06/20 05:13:55;;;;;;;7.67;5.30;;;;;;;;;;5053001;28;21049;-60
2022/06/20 05:16:24;;;;;;;9.90;6.80;;;;;;;;;;5052884;28;20429;-60
2022/06/20 05:18:53;;;;;;;5.67;5.00;;;;;;;;;;5052770;28;20458;-59
2022/06/20 05:21:22;;;;;;;11.90;7.50;;;;;;;;;;5052619;28;20418;-60
2022/06/20 05:23:52;;;;;;;16.17;9.43;;;;;;;;;;5052741;28;20454;-60
2022/06/20 05:26:20;;;;;;;15.40;9.97;;;;;;;;;;5052787;28;20434;-60
2022/06/20 05:28:49;;;;;;;9.87;7.80;;;;;;;;;;5052632;28;20423;-60
2022/06/20 05:31:17;;;;;;;12.90;7.30;;;;;;;;;;5052635;28;20448;-60
2022/06/20 05:33:46;;;;;;;10.93;6.50;;;;;;;;;;5052448;28;20452;-60
2022/06/20 05:36:18;;;;;;;9.83;6.43;;;;;;;;;;5052336;28;20433;-60
2022/06/20 05:38:47;;;;;;;7.43;6.30;;;;;;;;;;5052742;28;20858;-60
2022/06/20 05:41:16;;;;;;;12.17;6.50;;;;;;;;;;5052481;28;20925;-60
2022/06/20 05:43:44;;;;;;;9.10;7.10;;;;;;;;;;5052333;28;20462;-60
2022/06/20 05:46:13;;;;;;;11.23;7.33;;;;;;;;;;5052552;28;20839;-60
2022/06/20 05:48:43;;;;;;;14.23;7.57;;;;;;;;;;5052418;28;20462;-60
2022/06/20 05:51:10;;;;;;;10.87;6.60;;;;;;;;;;5052417;28;20456;-61
2022/06/20 05:53:40;;;;;;;15.50;6.87;;;;;;;;;;5052576;28;20431;-60
2022/06/20 05:56:13;;;;;;;12.37;6.60;;;;;;;;;;5052368;28;20480;-60
2022/06/20 05:58:43;;;;;;;7.67;5.40;;;;;;;;;;5052336;28;20426;-60
2022/06/20 06:01:13;;;;;;;9.03;6.30;;;;;;;;;;5052409;28;20437;-60
2022/06/20 06:03:42;;;;;;;8.10;4.93;;;;;;;;;;5052192;28;21013;-60
2022/06/20 06:06:16;;;;;;;10.70;5.70;;;;;;;;;;5052286;28;20470;-60
2022/06/20 06:08:46;;;;;;;6.27;4.50;;;;;;;;;;5052290;28;20510;-60
2022/06/20 06:11:15;;;;;;;7.57;4.93;;;;;;;;;;5052152;28;20470;-60
2022/06/20 06:13:46;;;;;;;7.00;5.07;;;;;;;;;;5052097;28;20972;-60
2022/06/20 06:19:04;;;;;;;7.70;4.70;;;;;;;;;;5052312;28;20500;-61
2022/06/20 06:21:33;;;;;;;11.10;5.60;;;;;;;;;;5052180;28;20444;-60
2022/06/20 06:24:01;;;;;;;7.53;4.93;;;;;;;;;;5051864;28;20487;-60
2022/06/20 06:26:28;;;;;;;7.17;4.63;;;;;;;;;;5052282;28;20454;-60
2022/06/20 06:28:56;;;;;;;11.53;5.00;;;;;;;;;;5052229;28;20452;-60
2022/06/20 06:31:25;;;;;;;6.40;5.80;;;;;;;;;;5052164;28;20514;-60
2022/06/20 06:33:56;;;;;;;7.10;5.70;;;;;;;;;;5052068;28;20448;-60
2022/06/20 06:36:26;;;;;;;6.33;5.17;;;;;;;;;;5052942;28;20932;-60
2022/06/20 06:38:58;;;;;;;7.97;5.87;;;;;;;;;;5055918;28;20425;-60
2022/06/20 06:41:26;;;;;;;7.30;6.00;;;;;;;;;;5055888;28;20534;-59
2022/06/20 06:43:54;;;;;;;6.80;4.77;;;;;;;;;;5055503;28;20851;-59
2022/06/20 06:46:27;;;;;;;9.53;5.23;;;;;;;;;;5055636;28;20452;-59
2022/06/20 06:49:00;;;;;;;8.70;4.73;;;;;;;;;;5055497;28;20844;-59
2022/06/20 06:51:30;;;;;;;5.47;4.90;;;;;;;;;;5055796;28;20426;-59
2022/06/20 06:53:58;;;;;;;4.20;3.90;;;;;;;;;;5055665;28;20807;-59
2022/06/20 06:56:28;;;;;;;6.10;5.30;;;;;;;;;;5055401;28;20427;-60
2022/06/20 06:58:59;;;;;;;7.27;4.27;;;;;;;;;;5055498;28;20459;-60
2022/06/20 07:01:29;;;;;;;10.53;5.87;;;;;;;;;;5055212;28;20444;-60
2022/06/20 07:03:59;;;;;;;5.00;4.60;;;;;;;;;;5055312;28;20553;-60
2022/06/20 07:06:27;;;;;;;6.87;4.27;;;;;;;;;;5055217;28;20452;-59
2022/06/20 07:08:56;;;;;;;5.77;3.83;;;;;;;;;;5055145;28;20422;-60
2022/06/20 07:11:24;;;;;;;7.30;4.47;;;;;;;;;;5055013;28;20969;-59
2022/06/20 07:13:55;;;;;;;4.87;4.10;;;;;;;;;;5048368;28;20452;-60
2022/06/20 07:16:25;;;;;;;7.43;4.93;;;;;;;;;;5035003;28;20511;-60
2022/06/20 07:18:54;;;;;;;6.27;4.80;;;;;;;;;;5035116;28;20516;-60
2022/06/20 07:21:22;;;;;;;6.10;4.73;;;;;;;;;;5034753;28;20449;-60
2022/06/20 07:23:50;;;;;;;8.87;4.73;;;;;;;;;;5034591;28;20975;-59
2022/06/20 07:26:21;;;;;;;9.33;5.00;;;;;;;;;;5034841;28;20430;-59
2022/06/20 07:28:50;;;;;;;7.77;4.77;;;;;;;;;;5034903;28;20420;-59
2022/06/20 07:31:19;;;;;;;5.00;4.63;;;;;;;;;;5035058;28;20812;-59
2022/06/20 07:33:48;;;;;;;5.90;5.00;;;;;;;;;;5034813;28;20560;-59
2022/06/20 07:36:18;;;;;;;8.90;6.33;;;;;;;;;;5034893;28;20453;-60
2022/06/20 07:38:47;;;;;;;8.47;5.37;;;;;;;;;;5034455;28;20459;-60
2022/06/20 07:41:17;;;;;;;7.60;5.03;;;;;;;;;;5034680;28;20449;-60
2022/06/20 07:43:47;;;;;;;5.20;4.70;;;;;;;;;;5034531;28;20474;-60
2022/06/20 07:46:15;;;;;;;7.23;4.57;;;;;;;;;;5034808;28;20475;-60
2022/06/20 07:48:43;;;;;;;5.07;4.07;;;;;;;;;;5031657;28;20460;-60
2022/06/20 07:51:13;;;;;;;7.37;4.33;;;;;;;;;;5034567;28;20544;-60
2022/06/20 07:53:44;;;;;;;4.47;4.07;;;;;;;;;;5033268;28;20580;-61
2022/06/20 07:56:14;;;;;;;8.20;4.40;;;;;;;;;;5034461;28;20449;-60
2022/06/20 07:58:43;;;;;;;5.87;4.10;;;;;;;;;;5034307;28;20457;-59
2022/06/20 08:01:14;;;;;;;4.67;4.07;;;;;;;;;;5034387;28;20544;-60
2022/06/20 08:03:45;;;;;;;7.23;4.00;;;;;;;;;;5034062;28;20452;-59
2022/06/20 08:06:17;;;;;;;5.10;4.17;;;;;;;;;;5034128;28;20459;-60
2022/06/20 08:08:48;;;;;;;8.87;4.50;;;;;;;;;;5034177;28;20523;-60
2022/06/20 08:11:40;;;;;;;4.57;4.13;;;;;;;;;;5034111;28;20540;-60
2022/06/20 08:14:06;;;;;;;7.13;4.40;;;;;;;;;;5033832;28;20532;-60
2022/06/20 08:16:35;;;;;;;5.20;3.60;;;;;;;;;;5033763;28;20888;-59
2022/06/20 08:19:02;;;;;;;3.93;3.63;;;;;;;;;;5036735;28;20459;-60
2022/06/20 08:21:31;;;;;;;5.90;4.03;;;;;;;;;;5042389;28;20552;-59
2022/06/20 08:24:01;;;;;;;3.67;3.37;;;;;;;;;;5045962;28;20490;-60
2022/06/20 08:26:30;;;;;;;7.57;4.00;;;;;;;;;;5049993;28;20547;-59
2022/06/20 08:28:58;;;;;;;4.43;3.30;;;;;;;;;;5047833;28;20456;-60
2022/06/20 08:31:32;;;;;;;4.20;3.50;;;;;;;;;;5056012;28;20467;-58
2022/06/20 08:34:03;;;;;;;5.05;3.95;;;;;;;;;;5053095;28;20457;-58
2022/06/20 08:36:33;;;;;;;4.97;3.77;;;;;;;;;;5051506;28;20192;-58
2022/06/20 08:39:03;;;;;;;4.13;3.73;;;;;;;;;;5042472;28;20817;-59
2022/06/20 08:41:40;;;;;;;4.03;3.57;;;;;;;;;;5049776;28;20990;-50
2022/06/20 08:44:23;;;;;;;4.47;4.07;;;;;;;;;;5046237;28;20502;-59
2022/06/20 08:47:07;;;;;;;8.50;4.80;;;;;;;;;;5052819;28;20461;-53
2022/06/20 08:49:55;;;;;;;6.70;4.20;;;;;;;;;;5052927;28;21003;-58
2022/06/20 08:52:36;;;;;;;5.60;4.17;;;;;;;;;;5050868;28;20448;-63
2022/06/20 08:55:22;;;;;;;5.43;4.93;;;;;;;;;;5052896;28;20475;-61
2022/06/20 08:57:53;;;;;;;6.60;6.00;;;;;;;;;;5049750;28;20437;-58
2022/06/20 09:00:25;;;;;;;6.30;5.13;;;;;;;;;;5046133;28;20784;-59
2022/06/20 09:03:00;;;;;;;4.87;4.47;;;;;;;;;;5033059;28;20495;-59
2022/06/20 09:05:34;;;;;;;5.43;4.67;;;;;;;;;;5047094;28;20458;-57
2022/06/20 09:08:18;;;;;;;5.40;4.90;;;;;;;;;;5051168;28;20451;-57
2022/06/20 09:10:50;;;;;;;8.77;5.90;;;;;;;;;;5034167;28;20453;-58
2022/06/20 09:13:27;;;;;;;5.27;4.80;;;;;;;;;;5051695;28;20466;-59
2022/06/20 09:16:02;;;;;;;7.03;5.77;;;;;;;;;;5052257;28;20426;-59
2022/06/20 09:18:37;;;;;;;7.13;6.43;;;;;;;;;;5052725;28;20455;-60
2022/06/20 09:21:08;;;;;;;7.33;6.60;;;;;;;;;;5051614;28;20550;-56
2022/06/20 09:23:39;;;;;;;7.03;6.50;;;;;;;;;;5034373;28;20484;-57
2022/06/20 09:26:11;;;;;;;7.03;5.87;;;;;;;;;;5051178;28;20423;-58
2022/06/20 09:28:48;;;;;;;6.97;6.20;;;;;;;;;;5037996;28;20484;-56
2022/06/20 09:31:22;;;;;;;7.80;7.10;;;;;;;;;;5042913;28;20458;-59
2022/06/20 09:34:04;;;;;;;8.80;7.53;;;;;;;;;;5036083;28;20486;-56
2022/06/20 09:36:48;;;;;;;7.20;6.60;;;;;;;;;;5034134;28;20434;-60
2022/06/20 09:39:20;;;;;;;10.40;7.00;;;;;;;;;;5055893;28;20459;-59
2022/06/20 09:41:57;;;;;;;7.20;6.50;;;;;;;;;;5034022;28;20453;-59
2022/06/20 09:44:31;;;;;;;9.27;6.50;;;;;;;;;;5050660;28;20479;-58
2022/06/20 09:47:01;;;;;;;7.33;6.73;;;;;;;;;;5032659;28;20562;-58
2022/06/20 09:49:33;;;;;;;9.20;7.30;;;;;;;;;;5031567;28;20544;-59
2022/06/20 09:52:05;;;;;;;9.13;7.40;;;;;;;;;;5032461;28;20791;-60
2022/06/20 09:54:38;;;;;;;8.07;7.27;;;;;;;;;;5043174;28;20458;-59
2022/06/20 09:57:13;;;;;;;10.63;8.27;;;;;;;;;;5051255;28;20480;-58
2022/06/20 09:59:43;;;;;;;9.57;8.77;;;;;;;;;;5052485;28;20444;-58
2022/06/20 10:02:14;;;;;;;7.37;6.67;;;;;;;;;;5052263;28;20456;-58
2022/06/20 10:04:45;;;;;;;7.70;6.77;;;;;;;;;;5051851;28;20475;-59
2022/06/20 10:07:14;;;;;;;8.40;7.70;;;;;;;;;;5050421;28;20775;-60
2022/06/20 10:09:46;;;;;;;8.00;7.30;;;;;;;;;;5051312;28;20457;-59
2022/06/20 10:12:17;;;;;;;10.13;9.33;;;;;;;;;;5058549;28;20438;-64
2022/06/20 10:14:48;;;;;;;9.07;8.27;;;;;;;;;;5058571;28;20463;-60
2022/06/20 10:17:18;;;;;;;8.77;7.97;;;;;;;;;;5040886;28;20544;-59
2022/06/20 10:19:47;;;;;;;8.43;7.63;;;;;;;;;;5036049;28;20445;-61
2022/06/20 10:22:17;;;;;;;9.20;8.50;;;;;;;;;;5036276;28;20548;-60
2022/06/20 10:24:50;;;;;;;9.60;8.67;;;;;;;;;;5047896;28;20480;-60
2022/06/20 10:27:26;;;;;;;10.80;9.90;;;;;;;;;;5055957;28;20456;-60
2022/06/20 10:30:03;;;;;;;12.13;9.33;;;;;;;;;;5055376;28;20921;-60
2022/06/20 10:32:34;;;;;;;9.30;8.40;;;;;;;;;;5054532;28;20447;-60
2022/06/20 10:35:04;;;;;;;10.13;9.30;;;;;;;;;;5054228;28;20456;-58
2022/06/20 10:37:36;;;;;;;10.53;9.23;;;;;;;;;;5055285;28;20440;-57
2022/06/20 10:40:11;;;;;;;10.90;10.00;;;;;;;;;;5054231;28;20463;-58
2022/06/20 10:42:46;;;;;;;11.30;10.20;;;;;;;;;;5053538;28;20440;-60
2022/06/20 10:45:25;;;;;;;9.63;8.83;;;;;;;;;;5054331;28;20484;-59
2022/06/20 10:47:59;;;;;;;11.30;10.37;;;;;;;;;;5054007;28;20452;-60
2022/06/20 10:50:32;;;;;;;10.90;10.00;;;;;;;;;;5055355;28;20858;-60
2022/06/20 10:53:03;;;;;;;12.67;11.13;;;;;;;;;;5053461;28;20456;-57
2022/06/20 10:55:36;;;;;;;11.40;10.37;;;;;;;;;;5053692;28;20460;-57
2022/06/20 10:58:09;;;;;;;11.57;10.40;;;;;;;;;;5038439;28;20456;-55
2022/06/20 11:00:40;;;;;;;10.63;9.60;;;;;;;;;;5054194;28;20452;-57
2022/06/20 11:03:15;;;;;;;11.50;10.53;;;;;;;;;;5050382;28;20471;-53
2022/06/20 11:05:45;;;;;;;11.20;10.20;;;;;;;;;;5052789;28;21004;-59
2022/06/20 11:08:17;;;;;;;10.97;9.80;;;;;;;;;;5054206;28;20835;-60
2022/06/20 11:10:52;;;;;;;10.73;9.63;;;;;;;;;;5053796;28;20466;-59
2022/06/20 11:13:26;;;;;;;9.93;8.90;;;;;;;;;;5051503;28;20456;-59
2022/06/20 11:15:57;;;;;;;9.97;8.80;;;;;;;;;;5054100;28;20838;-59
2022/06/20 11:18:34;;;;;;;11.00;10.10;;;;;;;;;;5053963;28;20539;-59
2022/06/20 11:21:06;;;;;;;11.60;10.60;;;;;;;;;;5054977;28;20448;-59
2022/06/20 11:23:37;;;;;;;11.30;10.20;;;;;;;;;;5053112;28;20551;-60
2022/06/20 11:26:09;;;;;;;11.90;9.80;;;;;;;;;;5054365;28;20441;-59
2022/06/20 11:28:44;;;;;;;14.63;10.77;;;;;;;;;;5038719;28;20525;-60
2022/06/20 11:31:12;;;;;;;9.80;8.90;;;;;;;;;;5053190;28;20452;-60
2022/06/20 11:34:04;;;;;;;8.70;7.80;;;;;;;;;;5054340;28;20451;-60
2022/06/20 11:36:37;;;;;;;8.57;7.40;;;;;;;;;;5054259;28;20527;-60
2022/06/20 11:39:10;;;;;;;8.17;7.47;;;;;;;;;;5065182;28;20461;-60
2022/06/20 11:41:39;;;;;;;9.37;7.73;;;;;;;;;;5052957;28;20463;-60
2022/06/20 11:44:23;;;;;;;9.53;8.67;;;;;;;;;;5050038;28;20488;-60
2022/06/20 11:46:56;;;;;;;11.83;6.70;;;;;;;;;;5040858;28;20454;-60
2022/06/20 11:49:30;;;;;;;7.40;6.77;;;;;;;;;;5053814;28;20452;-60
2022/06/20 11:52:01;;;;;;;8.07;7.10;;;;;;;;;;5051192;28;20458;-60
2022/06/20 11:54:35;;;;;;;7.70;7.07;;;;;;;;;;5041035;28;20457;-60
2022/06/20 11:57:04;;;;;;;6.03;5.50;;;;;;;;;;5053388;28;20463;-60
2022/06/20 11:59:36;;;;;;;6.60;6.07;;;;;;;;;;5048157;28;20456;-61
2022/06/20 12:02:13;;;;;;;7.17;6.17;;;;;;;;;;5053002;28;20789;-59
2022/06/20 12:04:45;;;;;;;5.93;5.40;;;;;;;;;;5052977;28;20476;-60
2022/06/20 12:07:15;;;;;;;5.17;4.77;;;;;;;;;;5053152;28;20432;-59
2022/06/20 12:09:44;;;;;;;5.13;4.67;;;;;;;;;;5053833;28;20842;-56
2022/06/20 12:12:20;;;;;;;4.70;4.30;;;;;;;;;;5051342;28;20452;-59
2022/06/20 12:14:57;;;;;;;5.00;4.60;;;;;;;;;;5053467;28;20803;-59
2022/06/20 12:17:29;;;;;;;4.70;4.40;;;;;;;;;;5054016;28;20444;-55
2022/06/20 12:25:43;;;;;;;6.40;4.77;;;;;;;;;;5044498;28;20475;-57
2022/06/20 12:28:18;;;;;;;4.23;3.83;;;;;;;;;;5053655;28;20862;-57
2022/06/20 12:30:46;;;;;;;6.00;3.93;;;;;;;;;;5049018;28;20488;-60
2022/06/20 12:33:14;;;;;;;3.63;3.33;;;;;;;;;;5052454;28;20423;-61
2022/06/20 12:35:43;;;;;;;3.57;3.27;;;;;;;;;;5053155;28;20427;-58
2022/06/20 12:38:12;;;;;;;3.10;2.90;;;;;;;;;;5050985;28;20456;-60
2022/06/20 12:40:42;;;;;;;3.47;3.10;;;;;;;;;;5053352;28;20452;-59
2022/06/20 12:43:13;;;;;;;3.30;3.10;;;;;;;;;;5051728;28;21447;-59
2022/06/20 12:46:07;;;;;;;3.63;3.23;;;;;;;;;;5050958;28;20480;-52
2022/06/20 12:48:46;;;;;;;2.33;2.13;;;;;;;;;;5051415;28;20883;-58
2022/06/20 12:51:17;;;;;;;4.40;2.73;;;;;;;;;;5053123;28;20448;-59
2022/06/20 12:53:55;;;;;;;3.07;2.83;;;;;;;;;;5052839;28;20531;-58
2022/06/20 12:56:27;;;;;;;3.00;2.90;;;;;;;;;;5052901;28;20448;-58
2022/06/20 12:59:07;;;;;;;3.07;2.53;;;;;;;;;;5051389;28;20484;-58
2022/06/20 13:01:39;;;;;;;2.50;2.17;;;;;;;;;;5046293;28;20507;-62
2022/06/20 13:04:15;;;;;;;4.13;2.93;;;;;;;;;;5042486;28;20802;-62
2022/06/20 13:06:52;;;;;;;2.93;2.50;;;;;;;;;;5032033;28;20530;-62
2022/06/20 13:09:37;;;;;;;2.57;2.37;;;;;;;;;;5032533;28;20535;-62
2022/06/20 13:12:10;;;;;;;2.50;2.30;;;;;;;;;;5032074;28;20459;-62
2022/06/20 13:14:45;;;;;;;3.00;2.80;;;;;;;;;;5032589;28;20564;-62
2022/06/20 13:17:20;;;;;;;6.03;3.20;;;;;;;;;;5033104;28;20449;-62
2022/06/20 13:19:57;;;;;;;3.77;3.47;;;;;;;;;;5033029;28;20451;-63
2022/06/20 13:22:28;;;;;;;3.73;3.43;;;;;;;;;;5032500;28;20952;-62
2022/06/20 13:25:01;;;;;;;3.23;3.03;;;;;;;;;;5032569;28;20480;-62
2022/06/20 13:27:32;;;;;;;3.00;2.87;;;;;;;;;;5032966;28;20454;-62
2022/06/20 13:30:04;;;;;;;2.73;2.63;;;;;;;;;;5032901;28;20866;-62
2022/06/20 13:32:33;;;;;;;3.60;3.30;;;;;;;;;;5032665;28;20445;-62
2022/06/20 13:35:03;;;;;;;3.53;3.30;;;;;;;;;;5032575;28;20456;-62
2022/06/20 13:37:42;;;;;;;3.33;3.07;;;;;;;;;;5032652;28;20456;-62
2022/06/20 13:40:17;;;;;;;4.63;3.40;;;;;;;;;;5033075;28;20464;-62
2022/06/20 13:42:46;;;;;;;3.93;3.50;;;;;;;;;;5032534;28;20539;-62
2022/06/20 13:45:19;;;;;;;4.20;3.90;;;;;;;;;;5033910;28;20983;-61
2022/06/20 13:47:55;;;;;;;3.83;3.53;;;;;;;;;;5036393;28;20449;-62
2022/06/20 13:50:25;;;;;;;2.60;2.50;;;;;;;;;;5037005;28;20444;-62
2022/06/20 13:52:55;;;;;;;3.10;2.80;;;;;;;;;;5036648;28;20468;-61
2022/06/20 13:55:24;;;;;;;2.80;2.40;;;;;;;;;;5036607;28;20861;-61
2022/06/20 13:57:56;;;;;;;2.60;2.40;;;;;;;;;;5036553;28;20448;-61
2022/06/20 14:00:25;;;;;;;2.63;2.43;;;;;;;;;;5036480;28;20457;-61
2022/06/20 14:03:08;;;;;;;1.70;1.60;;;;;;;;;;5036809;28;20490;-62
2022/06/20 14:05:37;;;;;;;2.43;2.23;;;;;;;;;;5036593;28;20481;-61
2022/06/20 14:08:06;;;;;;;1.60;1.50;;;;;;;;;;5036395;28;20563;-61
2022/06/20 14:10:35;;;;;;;1.80;1.70;;;;;;;;;;5036155;28;20798;-62
2022/06/20 14:13:04;;;;;;;1.63;1.20;;;;;;;;;;5036665;28;20540;-61
2022/06/20 14:15:34;;;;;;;1.50;1.40;;;;;;;;;;5036361;28;20453;-62
2022/06/20 14:18:03;;;;;;;1.50;1.40;;;;;;;;;;5036148;28;20953;-61
2022/06/20 14:20:32;;;;;;;4.70;4.30;;;;;;;;;;5036164;28;20484;-61
2022/06/20 14:23:02;;;;;;;1.93;1.83;;;;;;;;;;5036618;28;20453;-61
2022/06/20 14:25:34;;;;;;;2.07;1.27;;;;;;;;;;5036407;28;20473;-62
2022/06/20 14:28:02;;;;;;;1.10;1.00;;;;;;;;;;5036404;28;20644;-61
2022/06/20 14:30:31;;;;;;;1.57;1.20;;;;;;;;;;5036179;28;20488;-61
2022/06/20 14:33:00;;;;;;;1.50;1.20;;;;;;;;;;5035969;28;20484;-61
2022/06/20 14:35:29;;;;;;;1.30;1.20;;;;;;;;;;5035947;28;20449;-62
2022/06/20 14:38:00;;;;;;;1.63;1.40;;;;;;;;;;5036172;28;20445;-61
2022/06/20 14:40:31;;;;;;;1.60;1.33;;;;;;;;;;5036069;28;20449;-61
2022/06/20 14:43:02;;;;;;;1.93;1.83;;;;;;;;;;5035860;28;20556;-61
2022/06/20 14:45:32;;;;;;;4.00;1.53;;;;;;;;;;5035817;28;20481;-61
2022/06/20 14:48:02;;;;;;;2.33;1.50;;;;;;;;;;5035732;28;20485;-61
2022/06/20 14:50:30;;;;;;;1.80;1.53;;;;;;;;;;5036010;28;20809;-61
2022/06/20 14:52:59;;;;;;;2.83;1.60;;;;;;;;;;5035469;28;21012;-61
2022/06/20 14:55:34;;;;;;;1.83;1.73;;;;;;;;;;5035518;28;20801;-61
2022/06/20 14:58:03;;;;;;;1.77;1.67;;;;;;;;;;5034832;28;20448;-61
2022/06/20 15:00:33;;;;;;;2.33;1.93;;;;;;;;;;5035396;28;20467;-61
2022/06/20 15:03:02;;;;;;;2.57;2.37;;;;;;;;;;5035838;28;20794;-61
2022/06/20 15:05:33;;;;;;;2.63;2.43;;;;;;;;;;5035472;28;20485;-62
2022/06/20 15:08:04;;;;;;;2.43;2.30;;;;;;;;;;5035440;28;20453;-61
2022/06/20 15:10:35;;;;;;;3.53;3.33;;;;;;;;;;5035340;28;20449;-61